createdAt,value
2022-12-31T00:01:48.180Z,98520.66
2022-12-31T00:04:18.379Z,98518.13
2022-12-31T00:06:46.350Z,98521.72
2022-12-31T00:09:16.717Z,98521.91
2022-12-31T00:11:44.950Z,98513.81
2022-12-31T00:14:12.419Z,98511.59
2022-12-31T00:16:43.418Z,98513.56
2022-12-31T00:19:13.877Z,98511.38
2022-12-31T00:21:46.718Z,98502.31
2022-12-31T00:24:16.531Z,98502.47
2022-12-31T00:26:43.896Z,98500.91
2022-12-31T00:29:11.024Z,98498.94
2022-12-31T00:31:39.804Z,98505.16
2022-12-31T00:34:07.733Z,98499.53
2022-12-31T00:36:39.249Z,98504.91
2022-12-31T00:39:11.573Z,98516.91
2022-12-31T00:41:38.832Z,98514.75
2022-12-31T00:44:06.654Z,98511.69
2022-12-31T00:49:04.722Z,98522.22
2022-12-31T00:51:33.114Z,98531.94
2022-12-31T00:54:00.425Z,98533.56
2022-12-31T00:56:30.397Z,98541.25
2022-12-31T00:58:59.333Z,98543.97
2022-12-31T01:01:33.782Z,98548.84
2022-12-31T01:04:09.875Z,98560.97
2022-12-31T01:06:37.796Z,98558.16
2022-12-31T01:09:06.761Z,98563.81
2022-12-31T01:11:34.363Z,98560.09
2022-12-31T01:14:15.283Z,98569.13
2022-12-31T01:16:47.197Z,98573.13
2022-12-31T01:19:24.383Z,98573.66
2022-12-31T01:21:52.413Z,98569.00
2022-12-31T01:24:21.966Z,98580.34
2022-12-31T01:26:49.555Z,98590.84
2022-12-31T01:29:17.128Z,98603.72
2022-12-31T01:31:44.447Z,98612.66
2022-12-31T01:34:11.735Z,98607.69
2022-12-31T01:36:39.199Z,98623.31
2022-12-31T01:39:09.051Z,98612.53
2022-12-31T01:41:41.853Z,98606.28
2022-12-31T01:44:12.198Z,98594.88
2022-12-31T01:47:02.748Z,98590.63
2022-12-31T01:49:41.878Z,98588.91
2022-12-31T01:52:27.443Z,98588.94
2022-12-31T01:55:34.976Z,98607.63
2022-12-31T01:58:14.303Z,98603.66
2022-12-31T02:00:57.428Z,98596.25
2022-12-31T02:03:27.560Z,98589.47
2022-12-31T02:06:26.180Z,98579.19
2022-12-31T02:08:53.359Z,98593.09
2022-12-31T02:11:30.030Z,98596.19
2022-12-31T02:14:06.304Z,98594.53
2022-12-31T02:17:24.203Z,98590.22
2022-12-31T02:20:31.252Z,98594.31
2022-12-31T02:23:36.255Z,98595.59
2022-12-31T02:26:21.366Z,98591.09
2022-12-31T02:28:57.385Z,98599.78
2022-12-31T02:31:44.128Z,98601.38
2022-12-31T02:34:55.307Z,98609.84
2022-12-31T02:37:28.136Z,98601.38
2022-12-31T02:39:56.604Z,98589.88
2022-12-31T02:42:23.775Z,98601.69
2022-12-31T02:44:50.960Z,98603.84
2022-12-31T02:47:42.669Z,98601.06
2022-12-31T02:51:10.427Z,98594.44
2022-12-31T02:54:04.903Z,98608.63
2022-12-31T02:57:26.850Z,98605.03
2022-12-31T03:00:29.840Z,98591.50
2022-12-31T03:03:00.007Z,98597.97
2022-12-31T03:05:33.548Z,98600.00
2022-12-31T03:08:00.833Z,98603.53
2022-12-31T03:10:27.953Z,98615.50
2022-12-31T03:12:55.645Z,98610.47
2022-12-31T03:15:30.928Z,98606.00
2022-12-31T03:18:10.904Z,98588.22
2022-12-31T03:21:04.799Z,98595.78
2022-12-31T03:24:05.186Z,98591.84
2022-12-31T03:26:32.302Z,98592.66
2022-12-31T03:28:59.484Z,98606.56
2022-12-31T03:31:26.638Z,98596.09
2022-12-31T03:33:53.850Z,98597.41
2022-12-31T03:36:21.130Z,98609.59
2022-12-31T03:38:52.578Z,98595.09
2022-12-31T03:41:20.343Z,98598.97
2022-12-31T03:43:47.623Z,98601.13
2022-12-31T03:46:14.770Z,98592.19
2022-12-31T03:48:42.003Z,98602.69
2022-12-31T03:51:09.245Z,98608.34
2022-12-31T03:53:36.387Z,98598.31
2022-12-31T03:56:03.675Z,98590.09
2022-12-31T03:58:30.941Z,98599.81
2022-12-31T04:00:58.247Z,98605.94
2022-12-31T04:03:25.441Z,98606.03
2022-12-31T04:05:55.769Z,98611.31
2022-12-31T04:08:23.751Z,98609.16
2022-12-31T04:10:51.182Z,98610.41
2022-12-31T04:13:18.359Z,98620.63
2022-12-31T04:15:45.627Z,98615.94
2022-12-31T04:18:13.410Z,98622.47
2022-12-31T04:20:40.574Z,98619.91
2022-12-31T04:23:07.929Z,98623.34
2022-12-31T04:25:34.936Z,98620.97
2022-12-31T04:28:02.094Z,98612.56
2022-12-31T04:30:29.212Z,98610.59
2022-12-31T04:32:56.439Z,98617.81
2022-12-31T04:35:23.657Z,98618.75
2022-12-31T04:37:51.976Z,98632.09
2022-12-31T04:40:19.164Z,98636.13
2022-12-31T04:42:46.349Z,98640.28
2022-12-31T04:45:13.565Z,98643.44
2022-12-31T04:47:40.791Z,98642.53
2022-12-31T04:50:08.611Z,98642.53
2022-12-31T04:52:42.479Z,98637.19
2022-12-31T04:55:11.278Z,98638.44
2022-12-31T04:57:38.655Z,98637.28
2022-12-31T05:00:06.207Z,98642.06
2022-12-31T05:02:33.476Z,98642.63
2022-12-31T05:05:00.850Z,98644.31
2022-12-31T05:07:28.074Z,98652.69
2022-12-31T05:09:55.246Z,98639.81
2022-12-31T05:12:22.462Z,98639.84
2022-12-31T05:14:49.660Z,98643.19
2022-12-31T05:17:27.052Z,98651.56
2022-12-31T05:19:54.545Z,98645.97
2022-12-31T05:22:33.591Z,98651.75
2022-12-31T05:25:03.004Z,98659.03
2022-12-31T05:27:31.600Z,98665.78
2022-12-31T05:30:00.540Z,98667.34
2022-12-31T05:32:43.734Z,98666.00
2022-12-31T05:35:12.951Z,98662.34
2022-12-31T05:37:44.630Z,98664.59
2022-12-31T05:40:16.719Z,98666.66
2022-12-31T05:42:43.951Z,98668.94
2022-12-31T05:45:18.173Z,98689.97
2022-12-31T05:47:46.247Z,98676.97
2022-12-31T05:50:15.928Z,98683.38
2022-12-31T05:52:47.704Z,98683.31
2022-12-31T05:55:24.084Z,98683.19
2022-12-31T05:57:53.258Z,98685.81
2022-12-31T06:00:26.266Z,98690.00
2022-12-31T06:02:53.680Z,98691.41
2022-12-31T06:05:27.593Z,98690.03
2022-12-31T06:07:54.808Z,98688.84
2022-12-31T06:10:22.972Z,98689.50
2022-12-31T06:12:50.210Z,98701.28
2022-12-31T06:15:21.300Z,98709.16
2022-12-31T06:17:48.662Z,98716.09
2022-12-31T06:20:15.936Z,98717.72
2022-12-31T06:22:48.227Z,98706.81
2022-12-31T06:25:23.120Z,98711.56
2022-12-31T06:27:51.107Z,98708.28
2022-12-31T06:30:22.406Z,98716.41
2022-12-31T06:32:51.234Z,98716.03
2022-12-31T06:35:22.102Z,98723.84
2022-12-31T06:37:50.128Z,98723.09
2022-12-31T06:40:19.200Z,98721.72
2022-12-31T06:42:46.405Z,98727.69
2022-12-31T06:45:13.553Z,98729.31
2022-12-31T06:47:42.012Z,98734.06
2022-12-31T06:50:09.550Z,98735.94
2022-12-31T06:52:37.209Z,98739.28
2022-12-31T06:55:06.139Z,98738.44
2022-12-31T06:57:33.792Z,98747.34
2022-12-31T07:00:01.542Z,98749.09
2022-12-31T07:02:37.392Z,98746.31
2022-12-31T07:05:29.362Z,98743.78
2022-12-31T07:08:20.761Z,98749.97
2022-12-31T07:11:13.863Z,98756.97
2022-12-31T07:17:34.964Z,98748.13
2022-12-31T07:20:13.306Z,98754.25
2022-12-31T07:22:41.113Z,98757.22
2022-12-31T07:25:18.128Z,98763.00
2022-12-31T07:28:00.416Z,98782.78
2022-12-31T07:30:55.791Z,98780.22
2022-12-31T07:33:47.193Z,98777.94
2022-12-31T07:36:31.767Z,98772.06
2022-12-31T07:39:45.791Z,98780.16
2022-12-31T07:42:36.897Z,98791.63
2022-12-31T07:45:28.626Z,98799.66
2022-12-31T07:48:02.109Z,98801.97
2022-12-31T07:50:30.433Z,98797.91
2022-12-31T07:52:58.084Z,98788.81
2022-12-31T07:55:25.384Z,98789.13
2022-12-31T07:58:03.580Z,98784.81
2022-12-31T08:00:32.194Z,98781.19
2022-12-31T08:03:23.369Z,98776.78
2022-12-31T08:05:59.562Z,98781.97
2022-12-31T08:09:09.988Z,98781.59
2022-12-31T08:12:08.166Z,98786.00
2022-12-31T08:14:48.599Z,98786.72
2022-12-31T08:17:18.704Z,98794.50
2022-12-31T08:19:47.115Z,98814.59
2022-12-31T08:22:32.156Z,98823.72
2022-12-31T08:25:34.892Z,98853.28
2022-12-31T08:28:46.835Z,98865.28
2022-12-31T08:31:20.028Z,98855.19
2022-12-31T08:34:39.982Z,98841.47
2022-12-31T08:37:39.011Z,98852.06
2022-12-31T08:40:25.124Z,98845.00
2022-12-31T08:43:41.258Z,98824.53
2022-12-31T08:46:28.205Z,98819.13
2022-12-31T08:48:55.957Z,98811.72
2022-12-31T08:51:26.870Z,98814.13
2022-12-31T08:53:55.546Z,98815.31
2022-12-31T08:56:36.941Z,98805.84
2022-12-31T08:59:44.247Z,98808.34
2022-12-31T09:02:57.055Z,98810.00
2022-12-31T09:06:05.672Z,98818.69
2022-12-31T09:08:56.336Z,98816.78
2022-12-31T09:11:53.685Z,98824.81
2022-12-31T09:15:24.503Z,98818.59
2022-12-31T09:17:53.506Z,98812.97
2022-12-31T09:20:23.851Z,98829.84
2022-12-31T09:22:54.799Z,98823.97
2022-12-31T09:25:25.271Z,98822.47
2022-12-31T09:28:19.928Z,98818.72
2022-12-31T09:30:50.018Z,98827.03
2022-12-31T09:34:01.690Z,98820.88
2022-12-31T09:36:51.501Z,98819.88
2022-12-31T09:39:37.421Z,98815.31
2022-12-31T09:42:50.768Z,98822.16
2022-12-31T09:46:04.785Z,98831.88
2022-12-31T09:48:54.123Z,98832.84
2022-12-31T09:51:32.601Z,98823.50
2022-12-31T09:54:09.919Z,98818.06
2022-12-31T09:56:59.290Z,98811.44
2022-12-31T09:59:51.630Z,98813.41
2022-12-31T10:02:41.995Z,98811.47
2022-12-31T10:05:40.212Z,98803.91
2022-12-31T10:08:25.534Z,98807.59
2022-12-31T10:11:31.015Z,98806.56
2022-12-31T10:14:45.290Z,98815.09
2022-12-31T10:17:48.490Z,98819.34
2022-12-31T10:20:45.575Z,98823.22
2022-12-31T10:23:55.671Z,98825.91
2022-12-31T10:26:54.743Z,98828.44
2022-12-31T10:29:47.333Z,98811.16
2022-12-31T10:32:26.297Z,98815.31
2022-12-31T10:35:15.264Z,98809.84
2022-12-31T10:38:02.918Z,98795.72
2022-12-31T10:41:04.729Z,98803.38
2022-12-31T10:44:15.148Z,98806.69
2022-12-31T10:47:01.004Z,98808.97
2022-12-31T10:49:56.028Z,98811.88
2022-12-31T10:53:10.906Z,98806.22
2022-12-31T10:55:59.129Z,98791.94
2022-12-31T10:59:25.504Z,98786.69
2022-12-31T11:02:07.458Z,98791.16
2022-12-31T11:05:46.105Z,98806.53
2022-12-31T11:08:58.228Z,98802.56
2022-12-31T11:11:55.941Z,98785.84
2022-12-31T11:15:03.167Z,98790.56
2022-12-31T11:17:45.430Z,98788.47
2022-12-31T11:20:39.607Z,98784.00
2022-12-31T11:23:30.974Z,98808.53
2022-12-31T11:26:23.424Z,98784.63
2022-12-31T11:29:10.480Z,98783.63
2022-12-31T11:32:06.841Z,98778.38
2022-12-31T11:34:57.940Z,98775.25
2022-12-31T11:37:50.375Z,98762.06
2022-12-31T11:40:48.287Z,98751.31
2022-12-31T11:43:57.001Z,98763.72
2022-12-31T11:47:14.661Z,98756.00
2022-12-31T11:50:01.034Z,98755.72
2022-12-31T11:53:06.908Z,98753.25
2022-12-31T11:56:12.321Z,98752.56
2022-12-31T11:58:48.083Z,98746.19
2022-12-31T12:01:27.817Z,98751.41
2022-12-31T12:03:55.647Z,98730.50
2022-12-31T12:06:32.345Z,98724.31
2022-12-31T12:09:07.611Z,98725.59
2022-12-31T12:14:54.089Z,98715.84
2022-12-31T12:17:34.663Z,98733.13
2022-12-31T12:20:17.362Z,98724.53
2022-12-31T12:22:56.932Z,98722.16
2022-12-31T12:25:45.685Z,98720.25
2022-12-31T12:28:27.213Z,98707.31
2022-12-31T12:31:05.163Z,98708.50
2022-12-31T12:33:46.664Z,98717.97
2022-12-31T12:36:17.829Z,98728.22
2022-12-31T12:38:47.854Z,98728.63
2022-12-31T12:41:28.974Z,98715.19
2022-12-31T12:44:08.096Z,98727.41
2022-12-31T12:46:50.433Z,98743.25
2022-12-31T12:49:33.120Z,98745.06
2022-12-31T12:52:22.518Z,98752.03
2022-12-31T12:55:13.903Z,98735.78
2022-12-31T12:58:12.870Z,98747.03
2022-12-31T13:01:29.611Z,98730.19
2022-12-31T13:07:53.260Z,98728.69
2022-12-31T13:10:51.392Z,98740.88
2022-12-31T13:13:53.660Z,98732.81
2022-12-31T13:16:44.239Z,98738.13
2022-12-31T13:19:39.727Z,98748.19
2022-12-31T13:22:25.897Z,98755.47
2022-12-31T13:24:54.327Z,98749.28
2022-12-31T13:27:45.468Z,98730.34
2022-12-31T13:30:25.794Z,98730.88
2022-12-31T13:33:04.037Z,98711.44
2022-12-31T13:36:04.645Z,98711.59
2022-12-31T13:38:40.990Z,98687.22
2022-12-31T13:41:42.365Z,98683.69
2022-12-31T13:44:29.784Z,98686.22
2022-12-31T13:47:17.881Z,98705.44
2022-12-31T13:50:24.740Z,98709.94
2022-12-31T13:53:14.836Z,98723.31
2022-12-31T13:55:58.260Z,98731.16
2022-12-31T13:58:47.125Z,98734.47
2022-12-31T14:01:55.128Z,98729.72
2022-12-31T14:04:39.314Z,98725.34
2022-12-31T14:07:38.919Z,98735.88
2022-12-31T14:10:17.251Z,98735.06
2022-12-31T14:13:10.783Z,98733.22
2022-12-31T14:16:08.531Z,98731.16
2022-12-31T14:18:57.177Z,98727.38
2022-12-31T14:21:35.113Z,98726.75
2022-12-31T14:24:05.373Z,98717.69
2022-12-31T14:26:45.564Z,98716.84
2022-12-31T14:29:14.224Z,98711.88
2022-12-31T14:31:51.847Z,98711.47
2022-12-31T14:34:26.913Z,98714.94
2022-12-31T14:37:28.458Z,98711.38
2022-12-31T14:40:14.292Z,98719.09
2022-12-31T14:43:22.511Z,98720.44
2022-12-31T14:46:21.178Z,98724.97
2022-12-31T14:49:16.350Z,98726.66
2022-12-31T14:51:43.915Z,98730.78
2022-12-31T14:54:38.592Z,98725.97
2022-12-31T14:57:24.433Z,98729.84
2022-12-31T15:00:02.000Z,98727.25
2022-12-31T15:02:35.421Z,98730.41
2022-12-31T15:05:12.163Z,98727.59
2022-12-31T15:08:05.581Z,98727.38
2022-12-31T15:11:00.735Z,98724.34
2022-12-31T15:13:47.119Z,98753.25
2022-12-31T15:16:38.789Z,98752.91
2022-12-31T15:19:32.479Z,98736.78
2022-12-31T15:22:29.191Z,98732.34
2022-12-31T15:24:56.677Z,98742.59
2022-12-31T15:27:35.758Z,98755.13
2022-12-31T15:30:06.339Z,98756.25
2022-12-31T15:32:44.513Z,98765.38
2022-12-31T15:35:21.473Z,98769.59
2022-12-31T15:38:13.203Z,98778.44
2022-12-31T15:40:54.503Z,98775.44
2022-12-31T15:43:56.962Z,98776.03
2022-12-31T15:46:34.021Z,98785.56
2022-12-31T15:49:15.292Z,98784.31
2022-12-31T15:51:51.912Z,98792.16
2022-12-31T15:54:35.333Z,98782.94
2022-12-31T15:57:09.025Z,98789.34
2022-12-31T15:59:38.413Z,98792.13
2022-12-31T16:02:21.385Z,98782.03
2022-12-31T16:04:50.456Z,98788.25
2022-12-31T16:07:19.014Z,98796.19
2022-12-31T16:09:58.785Z,98796.31
2022-12-31T16:12:35.111Z,98804.09
2022-12-31T16:15:05.564Z,98805.00
2022-12-31T16:17:36.288Z,98810.53
2022-12-31T16:20:24.958Z,98824.47
2022-12-31T16:22:57.638Z,98832.50
2022-12-31T16:25:31.306Z,98838.13
2022-12-31T16:28:03.814Z,98841.66
2022-12-31T16:30:36.152Z,98842.59
2022-12-31T16:33:11.844Z,98842.63
2022-12-31T16:35:39.555Z,98845.53
2022-12-31T16:38:18.833Z,98831.31
2022-12-31T16:41:15.239Z,98835.72
2022-12-31T16:43:43.914Z,98827.97
2022-12-31T16:46:18.124Z,98845.66
2022-12-31T16:49:06.765Z,98846.13
2022-12-31T16:51:38.409Z,98860.88
2022-12-31T16:54:20.966Z,98861.13
2022-12-31T16:56:48.735Z,98865.44
2022-12-31T16:59:37.048Z,98863.28
2022-12-31T17:02:16.659Z,98876.88
2022-12-31T17:04:55.350Z,98875.63
2022-12-31T17:07:32.266Z,98872.59
2022-12-31T17:10:08.801Z,98867.94
2022-12-31T17:13:25.472Z,98871.91
2022-12-31T17:15:44.301Z,98873.59
2022-12-31T17:18:28.984Z,98863.91
2022-12-31T17:21:11.253Z,98871.59
2022-12-31T17:23:41.103Z,98874.09
2022-12-31T17:26:14.164Z,98879.84
2022-12-31T17:28:52.348Z,98879.38
2022-12-31T17:31:59.326Z,98887.28
2022-12-31T17:34:38.067Z,98888.81
2022-12-31T17:37:25.825Z,98887.66
2022-12-31T17:40:17.065Z,98891.63
2022-12-31T17:42:49.074Z,98900.97
2022-12-31T17:45:22.648Z,98903.75
2022-12-31T17:47:53.992Z,98905.72
2022-12-31T17:50:22.726Z,98903.56
2022-12-31T17:52:50.510Z,98900.19
2022-12-31T17:55:18.737Z,98898.44
2022-12-31T17:57:55.776Z,98897.69
2022-12-31T18:00:27.367Z,98900.28
2022-12-31T18:02:55.055Z,98914.03
2022-12-31T18:05:24.767Z,98906.63
2022-12-31T18:07:53.271Z,98897.94
2022-12-31T18:10:24.719Z,98898.00
2022-12-31T18:12:52.243Z,98907.50
2022-12-31T18:15:24.781Z,98907.75
2022-12-31T18:17:52.419Z,98910.16
2022-12-31T18:20:20.052Z,98931.47
2022-12-31T18:22:47.518Z,98922.25
2022-12-31T18:25:23.228Z,98925.75
2022-12-31T18:27:52.287Z,98930.53
2022-12-31T18:30:20.000Z,98924.63
2022-12-31T18:32:47.644Z,98923.50
2022-12-31T18:38:17.728Z,98930.91
2022-12-31T18:41:00.158Z,98928.19
2022-12-31T18:43:27.460Z,98936.91
2022-12-31T18:45:54.968Z,98930.41
2022-12-31T18:48:22.401Z,98941.31
2022-12-31T18:50:49.897Z,98934.44
2022-12-31T18:53:23.761Z,98937.34
2022-12-31T18:55:57.565Z,98936.72
2022-12-31T18:58:24.905Z,98951.22
2022-12-31T19:00:52.705Z,98955.50
2022-12-31T19:03:24.357Z,98952.81
2022-12-31T19:05:52.253Z,98954.03
2022-12-31T19:08:23.293Z,98960.34
2022-12-31T19:10:52.506Z,98957.44
2022-12-31T19:13:21.024Z,98955.97
2022-12-31T19:15:55.763Z,98963.84
2022-12-31T19:18:23.009Z,98959.38
2022-12-31T19:20:52.459Z,98961.91
2022-12-31T19:23:23.047Z,98970.38
2022-12-31T19:25:50.592Z,98972.41
2022-12-31T19:28:28.177Z,98968.78
2022-12-31T19:30:55.816Z,98971.38
2022-12-31T19:33:23.086Z,98976.66
2022-12-31T19:35:50.500Z,98971.09
2022-12-31T19:38:19.141Z,98969.53
2022-12-31T19:40:47.394Z,98968.31
2022-12-31T19:43:17.179Z,98967.56
2022-12-31T19:45:45.791Z,98968.91
2022-12-31T19:48:19.173Z,98963.00
2022-12-31T19:50:53.257Z,98955.41
2022-12-31T19:53:25.751Z,98964.72
2022-12-31T19:55:54.225Z,98966.34
2022-12-31T19:58:27.931Z,98959.41
2022-12-31T20:01:02.343Z,98959.59
2022-12-31T20:03:32.901Z,98950.31
2022-12-31T20:06:10.428Z,98951.22
2022-12-31T20:08:39.849Z,98953.81
2022-12-31T20:11:20.500Z,98951.41
2022-12-31T20:13:50.458Z,98955.13
2022-12-31T20:16:21.609Z,98951.31
2022-12-31T20:18:50.939Z,98955.50
2022-12-31T20:21:25.822Z,98956.59
2022-12-31T20:23:55.019Z,98944.34
2022-12-31T20:26:24.642Z,98945.44
2022-12-31T20:28:52.840Z,98945.94
2022-12-31T20:31:25.003Z,98945.66
2022-12-31T20:33:54.496Z,98952.25
2022-12-31T20:36:22.733Z,98956.44
2022-12-31T20:38:50.221Z,98958.84
2022-12-31T20:41:23.068Z,98962.75
2022-12-31T20:43:51.224Z,98959.50
2022-12-31T20:46:22.901Z,98959.41
2022-12-31T20:48:54.037Z,98961.78
2022-12-31T20:51:23.515Z,98953.97
2022-12-31T20:54:00.115Z,98966.19
2022-12-31T20:56:31.156Z,98967.13
2022-12-31T20:58:59.208Z,98972.78
2022-12-31T21:02:19.314Z,98971.50
2022-12-31T21:04:32.710Z,98968.94
2022-12-31T21:07:00.094Z,98974.44
2022-12-31T21:09:27.312Z,98972.38
2022-12-31T21:12:13.284Z,98974.72
2022-12-31T21:14:44.698Z,98972.59
2022-12-31T21:17:12.347Z,98972.03
2022-12-31T21:19:39.590Z,98968.88
2022-12-31T21:22:06.938Z,98961.91
2022-12-31T21:24:56.023Z,98967.63
2022-12-31T21:27:23.717Z,98968.31
2022-12-31T21:30:17.874Z,98957.75
2022-12-31T21:32:38.412Z,98957.44
2022-12-31T21:35:41.109Z,98951.94
2022-12-31T21:37:58.670Z,98957.41
2022-12-31T21:40:29.180Z,98959.28
2022-12-31T21:42:56.389Z,98956.78
2022-12-31T21:45:23.836Z,98944.44
2022-12-31T21:48:09.537Z,98947.69
2022-12-31T21:50:36.799Z,98956.38
2022-12-31T21:53:03.975Z,98955.88
2022-12-31T21:56:05.240Z,98956.22
2022-12-31T21:58:33.125Z,98951.31
2022-12-31T22:01:20.080Z,98970.75
2022-12-31T22:03:47.799Z,98960.41
2022-12-31T22:06:25.208Z,98960.28
2022-12-31T22:08:55.796Z,98968.91
2022-12-31T22:11:27.833Z,98972.50
2022-12-31T22:13:56.396Z,98974.19
2022-12-31T22:16:24.288Z,98972.78
2022-12-31T22:18:51.637Z,98981.84
2022-12-31T22:21:21.167Z,99002.56
2022-12-31T22:23:56.613Z,98997.28
2022-12-31T22:26:28.714Z,99005.81
2022-12-31T22:28:59.773Z,99007.41
2022-12-31T22:31:32.822Z,99007.97
2022-12-31T22:34:03.393Z,99002.28
2022-12-31T22:36:30.923Z,98987.50
2022-12-31T22:38:58.745Z,98990.47
2022-12-31T22:41:29.974Z,98988.19
2022-12-31T22:44:04.089Z,98982.84
2022-12-31T22:46:33.088Z,98977.84
2022-12-31T22:49:03.100Z,98980.03
2022-12-31T22:51:56.330Z,98985.25
2022-12-31T22:54:19.614Z,98985.28
2022-12-31T22:56:46.853Z,98972.31
2022-12-31T22:59:14.068Z,98977.03
2022-12-31T23:01:41.401Z,98989.66
2022-12-31T23:09:06.590Z,98980.09
2022-12-31T23:11:36.513Z,98984.63
2022-12-31T23:14:36.100Z,98974.41
2022-12-31T23:17:29.944Z,98982.53
2022-12-31T23:20:21.213Z,98989.00
2022-12-31T23:23:07.067Z,98976.72
2022-12-31T23:25:47.355Z,98975.56
2022-12-31T23:28:18.486Z,98981.19
2022-12-31T23:30:45.931Z,98979.41
2022-12-31T23:33:21.601Z,98973.63
2022-12-31T23:35:49.304Z,98966.28
2022-12-31T23:38:18.376Z,98972.09
2022-12-31T23:40:45.999Z,98970.13
2022-12-31T23:43:22.015Z,98968.38
2022-12-31T23:45:51.474Z,98963.94
2022-12-31T23:48:18.910Z,98981.06
2022-12-31T23:50:52.991Z,98973.28
2022-12-31T23:53:23.254Z,98967.38
2022-12-31T23:55:51.929Z,98970.44
2022-12-31T23:58:19.300Z,98973.22
